Time;durP1;ratioP1;P1;durP2;ratioP2;P2;SDS_P1;SDS_P2;PMS_P1;PMS_P2;Temp;Humidity;BMP_temperature;BMP_pressure;BME280_temperature;BME280_humidity;BME280_pressure;Samples;Min_cycle;Max_cycle;Signal;HPM_P1;HPM_P2
2023/03/31 00:01:51;;;;;;;;;3.00;3.00;;;;;11.79;72.73;100238.91;5013663;28;9942;-68
2023/03/31 00:04:22;;;;;;;;;4.00;1.25;;;;;11.82;72.76;100229.53;5013295;28;9941;-65
2023/03/31 00:06:52;;;;;;;;;2.00;2.00;;;;;11.82;72.54;100218.75;5012178;28;9700;-66
2023/03/31 00:09:20;;;;;;;;;1.00;1.00;;;;;11.82;72.21;100221.44;5012227;28;9766;-69
2023/03/31 00:11:48;;;;;;;;;3.75;2.00;;;;;11.79;72.65;100211.13;5012219;28;9775;-69
2023/03/31 00:14:17;;;;;;;;;3.00;1.50;;;;;11.76;72.63;100206.97;5020222;28;9852;-69
2023/03/31 00:16:44;;;;;;;;;1.25;1.00;;;;;11.75;72.74;100202.63;5011929;28;10370;-69
2023/03/31 00:19:16;;;;;;;;;2.75;1.00;;;;;11.72;72.94;100197.66;5012715;28;9851;-67
2023/03/31 00:21:45;;;;;;;;;2.25;2.25;;;;;11.74;73.00;100198.25;5013555;28;9801;-68
2023/03/31 00:24:12;;;;;;;;;1.75;1.00;;;;;11.78;72.84;100187.88;5012702;28;9929;-68
2023/03/31 00:26:38;;;;;;;;;1.75;1.00;;;;;11.81;72.98;100179.34;5020671;28;9752;-69
2023/03/31 00:29:07;;;;;;;;;1.00;1.00;;;;;11.79;72.49;100170.66;5011256;28;9976;-67
2023/03/31 00:31:34;;;;;;;;;1.50;1.50;;;;;11.79;72.62;100168.78;5010833;28;9864;-68
2023/03/31 00:34:01;;;;;;;;;2.00;1.00;;;;;11.80;72.73;100158.84;5012019;28;9817;-67
2023/03/31 00:36:28;;;;;;;;;1.00;1.00;;;;;11.81;72.60;100160.47;5012932;28;9732;-69
2023/03/31 00:39:01;;;;;;;;;1.00;1.00;;;;;11.81;72.32;100147.81;5013045;28;9744;-69
2023/03/31 00:41:29;;;;;;;;;1.00;1.00;;;;;11.80;72.78;100148.03;5012507;28;9813;-69
2023/03/31 00:44:07;;;;;;;;;3.50;1.75;;;;;11.75;72.47;100147.84;5028030;28;10784;-69
2023/03/31 00:46:42;;;;;;;;;2.25;1.00;;;;;11.75;72.72;100137.91;5010594;28;9801;-67
2023/03/31 00:49:38;;;;;;;;;4.50;1.75;;;;;11.72;72.72;100137.53;5012732;28;9756;-68
2023/03/31 00:52:14;;;;;;;;;3.00;3.00;;;;;11.68;72.66;100123.66;5009491;28;9816;-69
2023/03/31 00:54:44;;;;;;;;;1.75;1.75;;;;;11.59;72.82;100115.03;5026416;28;9992;-68
2023/03/31 00:57:13;;;;;;;;;0.25;0.00;;;;;11.59;73.29;100106.94;5012782;28;9816;-69
2023/03/31 00:59:46;;;;;;;;;2.25;1.00;;;;;11.61;73.17;100102.13;5027618;28;9743;-69
2023/03/31 01:02:14;;;;;;;;;2.25;2.25;;;;;11.58;73.08;100101.75;5011260;28;9929;-69
2023/03/31 01:04:49;;;;;;;;;5.25;3.50;;;;;11.56;73.20;100090.38;5010826;28;9855;-68
2023/03/31 01:07:21;;;;;;;;;8.25;3.25;;;;;11.54;73.33;100087.06;5011091;28;10739;-69
2023/03/31 01:09:53;;;;;;;;;3.25;2.00;;;;;11.51;73.29;100088.34;5010799;28;10658;-67
2023/03/31 01:12:20;;;;;;;;;5.00;3.00;;;;;11.50;73.66;100075.06;5011164;28;9866;-69
2023/03/31 01:14:49;;;;;;;;;3.25;3.25;;;;;11.50;73.61;100073.19;5011798;28;9852;-69
2023/03/31 01:17:20;;;;;;;;;4.00;2.25;;;;;11.53;73.76;100074.63;5012369;28;10027;-69
2023/03/31 01:20:14;;;;;;;;;5.50;2.00;;;;;11.54;73.79;100058.22;5011092;28;9769;-68
2023/03/31 01:22:58;;;;;;;;;4.75;3.00;;;;;11.50;73.80;100053.50;5001399;28;9703;-69
2023/03/31 01:25:46;;;;;;;;;1.25;1.25;;;;;11.52;74.21;100043.34;5009706;28;10101;-69
2023/03/31 01:28:31;;;;;;;;;1.00;1.00;;;;;11.54;74.17;100039.34;5010210;28;10203;-68
2023/03/31 01:31:25;;;;;;;;;2.50;1.50;;;;;11.50;74.40;100034.63;5011849;28;9993;-69
2023/03/31 01:34:27;;;;;;;;;1.75;1.75;;;;;11.52;74.53;100022.59;5010857;28;9924;-69
2023/03/31 01:37:31;;;;;;;;;2.00;2.00;;;;;11.55;74.81;100021.34;5011677;28;9956;-68
2023/03/31 01:40:18;;;;;;;;;2.00;2.00;;;;;11.53;74.85;100018.84;5011395;28;9975;-69
2023/03/31 01:43:15;;;;;;;;;1.00;1.00;;;;;11.52;74.94;100000.22;5011274;28;9847;-67
2023/03/31 01:45:53;;;;;;;;;2.00;2.00;;;;;11.51;75.09;99998.56;5010968;28;9894;-69
2023/03/31 01:48:42;;;;;;;;;5.50;1.00;;;;;11.53;75.32;99999.16;5011825;28;10000;-68
2023/03/31 01:51:18;;;;;;;;;5.50;4.75;;;;;11.52;75.49;99987.56;5011223;28;9904;-69
2023/03/31 01:54:19;;;;;;;;;4.00;3.25;;;;;11.52;75.58;99984.88;5011523;28;10009;-68
2023/03/31 01:57:05;;;;;;;;;3.00;2.00;;;;;11.43;76.18;99980.81;4998604;28;9937;-70
2023/03/31 01:59:40;;;;;;;;;3.00;3.00;;;;;11.43;76.20;99970.03;5010964;28;9830;-70
2023/03/31 02:02:21;;;;;;;;;2.00;2.00;;;;;11.49;76.57;99968.31;5011173;28;10020;-70
2023/03/31 02:04:53;;;;;;;;;2.50;2.50;;;;;11.49;76.50;99958.34;5009677;28;9913;-71
2023/03/31 02:07:26;;;;;;;;;5.25;3.75;;;;;11.53;76.64;99948.78;5009971;28;10125;-70
2023/03/31 02:09:58;;;;;;;;;3.00;2.50;;;;;11.54;76.50;99939.63;5011432;28;10009;-70
2023/03/31 02:12:29;;;;;;;;;1.25;1.25;;;;;11.55;76.63;99935.91;5008836;28;9974;-71
2023/03/31 02:14:59;;;;;;;;;2.00;2.00;;;;;11.60;76.73;99932.53;5008980;28;9689;-69
2023/03/31 02:17:31;;;;;;;;;4.00;2.00;;;;;11.60;76.63;99913.69;5010008;28;9902;-70
2023/03/31 02:20:14;;;;;;;;;2.00;2.00;;;;;11.64;76.77;99922.97;5003577;28;9832;-70
2023/03/31 02:22:47;;;;;;;;;5.00;5.00;;;;;11.63;76.89;99908.66;5011146;28;9731;-69
2023/03/31 02:25:19;;;;;;;;;2.25;1.75;;;;;11.66;77.17;99910.06;5009842;28;9871;-70
2023/03/31 02:27:52;;;;;;;;;2.75;2.75;;;;;11.68;77.03;99902.59;5010614;28;9924;-70
2023/03/31 02:30:19;;;;;;;;;4.50;4.00;;;;;11.62;77.34;99892.69;5018446;28;9772;-70
2023/03/31 02:32:46;;;;;;;;;3.25;3.25;;;;;11.62;77.68;99892.69;5009868;28;9912;-70
2023/03/31 02:35:16;;;;;;;;;3.25;3.25;;;;;11.62;77.71;99893.50;5009860;28;10688;-70
2023/03/31 02:37:43;;;;;;;;;6.50;4.00;;;;;11.59;78.04;99885.06;5011082;28;10650;-67
2023/03/31 02:40:18;;;;;;;;;4.75;4.00;;;;;11.56;78.36;99878.25;5009464;28;10078;-70
2023/03/31 02:42:44;;;;;;;;;3.50;3.50;;;;;11.58;78.89;99875.31;5009685;28;10038;-70
2023/03/31 02:45:41;;;;;;;;;3.00;3.00;;;;;11.51;79.25;99869.22;5007995;28;9964;-66
2023/03/31 02:48:19;;;;;;;;;9.00;5.00;;;;;11.52;79.56;99866.28;4987658;28;10036;-68
2023/03/31 02:51:21;;;;;;;;;5.00;5.00;;;;;11.56;79.69;99861.25;4990238;28;10091;-65
2023/03/31 02:54:00;;;;;;;;;5.00;5.00;;;;;11.54;79.86;99842.59;4990178;28;9915;-67
2023/03/31 02:56:51;;;;;;;;;4.50;4.50;;;;;11.52;80.20;99825.84;5007324;28;10037;-66
2023/03/31 02:59:26;;;;;;;;;4.50;4.50;;;;;11.56;80.31;99826.22;4989897;28;9987;-65
2023/03/31 03:02:09;;;;;;;;;1.00;1.00;;;;;11.56;80.34;99816.25;5006246;28;9985;-66
2023/03/31 03:04:41;;;;;;;;;4.00;4.00;;;;;11.58;80.59;99816.84;4994770;28;9925;-66
2023/03/31 03:07:36;;;;;;;;;2.50;2.50;;;;;11.57;80.36;99795.53;5009424;28;9932;-65
2023/03/31 03:10:12;;;;;;;;;3.25;2.00;;;;;11.53;80.58;99792.44;5008007;28;9850;-66
2023/03/31 03:12:55;;;;;;;;;6.75;2.00;;;;;11.44;80.83;99783.03;5007282;28;9869;-65
2023/03/31 03:15:35;;;;;;;;;4.00;2.00;;;;;11.45;80.85;99773.06;5010168;28;9911;-66
2023/03/31 03:18:04;;;;;;;;;4.50;4.00;;;;;11.47;81.02;99766.41;5006542;28;10067;-67
2023/03/31 03:20:32;;;;;;;;;2.00;2.00;;;;;11.44;80.99;99766.88;5010549;28;10123;-66
2023/03/31 03:22:59;;;;;;;;;4.00;2.00;;;;;11.40;81.05;99760.28;5009849;28;9926;-66
2023/03/31 03:25:25;;;;;;;;;3.25;1.00;;;;;11.37;81.18;99752.66;5009134;28;9831;-64
2023/03/31 03:27:52;;;;;;;;;2.50;2.00;;;;;11.38;81.42;99747.06;5010189;28;9731;-66
2023/03/31 03:30:19;;;;;;;;;2.00;1.25;;;;;11.35;81.46;99736.72;5010115;28;9864;-67
2023/03/31 03:32:46;;;;;;;;;2.00;1.00;;;;;11.34;80.66;99731.53;5011740;28;10031;-66
2023/03/31 03:35:12;;;;;;;;;2.00;2.00;;;;;11.31;80.99;99716.66;5012884;28;9760;-67
2023/03/31 03:37:39;;;;;;;;;1.25;1.25;;;;;11.30;81.10;99722.25;5013554;28;9767;-66
2023/03/31 03:40:06;;;;;;;;;3.00;3.00;;;;;11.28;81.23;99713.59;5013988;28;9793;-65
2023/03/31 03:42:34;;;;;;;;;5.00;2.00;;;;;11.30;81.29;99701.56;5013944;28;9861;-66
2023/03/31 03:45:00;;;;;;;;;2.00;2.00;;;;;11.31;81.65;99702.38;5012608;28;9906;-67
2023/03/31 03:47:27;;;;;;;;;3.00;2.25;;;;;11.27;81.25;99693.91;5013589;28;9868;-66
2023/03/31 03:49:54;;;;;;;;;3.00;3.00;;;;;11.24;81.76;99686.28;5013284;28;10836;-65
2023/03/31 03:52:20;;;;;;;;;4.25;4.25;;;;;11.25;81.85;99676.31;5012799;28;10002;-66
2023/03/31 03:54:47;;;;;;;;;2.00;2.00;;;;;11.20;81.71;99668.94;5013161;28;10205;-66
2023/03/31 03:57:14;;;;;;;;;4.25;3.00;;;;;11.20;82.01;99668.13;5012675;28;10022;-65
2023/03/31 03:59:40;;;;;;;;;9.25;6.25;;;;;11.21;81.97;99665.19;5013879;28;10023;-65
2023/03/31 04:02:07;;;;;;;;;3.00;2.75;;;;;11.12;82.39;99664.69;5012539;28;10116;-69
2023/03/31 04:04:33;;;;;;;;;3.00;2.25;;;;;11.11;82.43;99654.97;5011555;28;10640;-67
2023/03/31 04:07:00;;;;;;;;;4.75;4.50;;;;;11.06;82.66;99649.44;5028367;22;9988;-66
2023/03/31 04:09:27;;;;;;;;;3.00;3.00;;;;;11.07;82.70;99645.69;5011410;28;11059;-66
2023/03/31 04:11:53;;;;;;;;;4.00;3.50;;;;;11.02;83.09;99634.78;5013432;28;10656;-65
2023/03/31 04:14:20;;;;;;;;;5.00;2.50;;;;;11.03;83.30;99628.34;5012890;28;9953;-66
2023/03/31 04:16:47;;;;;;;;;3.00;3.00;;;;;11.01;82.65;99624.22;4995797;28;10058;-66
2023/03/31 04:19:16;;;;;;;;;1.75;1.25;;;;;10.96;83.14;99622.22;5009149;28;10106;-64
2023/03/31 04:21:49;;;;;;;;;5.00;2.00;;;;;10.94;82.99;99621.63;5008153;28;9920;-67
2023/03/31 04:24:20;;;;;;;;;3.00;2.00;;;;;10.93;83.51;99606.50;5012776;28;10036;-65
2023/03/31 04:26:49;;;;;;;;;1.00;1.00;;;;;10.96;83.19;99603.38;5013143;28;10026;-67
2023/03/31 04:29:16;;;;;;;;;2.00;2.00;;;;;10.89;83.29;99589.97;4995764;28;10014;-65
2023/03/31 04:31:43;;;;;;;;;2.00;1.25;;;;;10.85;83.39;99583.41;5008297;28;10117;-66
2023/03/31 04:34:12;;;;;;;;;2.75;2.00;;;;;10.84;83.43;99581.78;4993273;28;11174;-67
2023/03/31 04:36:51;;;;;;;;;1.75;1.75;;;;;10.87;83.68;99565.16;5010306;28;10141;-67
2023/03/31 04:39:29;;;;;;;;;1.75;1.00;;;;;10.88;83.76;99552.53;5012656;28;10100;-68
2023/03/31 04:42:00;;;;;;;;;2.00;0.75;;;;;10.88;83.73;99547.13;5010797;28;9938;-68
2023/03/31 04:44:27;;;;;;;;;2.75;2.75;;;;;10.89;83.61;99538.00;5011629;28;10273;-65
2023/03/31 04:46:54;;;;;;;;;2.00;2.00;;;;;10.87;83.18;99524.78;5012544;28;9945;-66
2023/03/31 04:49:21;;;;;;;;;3.25;1.00;;;;;10.89;83.38;99521.84;4994493;28;10131;-66
2023/03/31 04:51:47;;;;;;;;;6.00;2.75;;;;;10.90;83.35;99515.44;5006805;28;10104;-64
2023/03/31 04:54:14;;;;;;;;;6.00;4.25;;;;;10.87;83.55;99505.94;5009962;28;10216;-66
2023/03/31 04:56:40;;;;;;;;;4.75;3.75;;;;;10.81;83.11;99508.72;5012283;28;10096;-66
2023/03/31 04:59:07;;;;;;;;;2.50;2.50;;;;;10.81;83.17;99496.06;5011725;28;10075;-66
2023/03/31 05:01:35;;;;;;;;;2.00;2.00;;;;;10.84;83.54;99495.63;5007754;28;10021;-66
2023/03/31 05:04:03;;;;;;;;;2.75;2.25;;;;;10.88;83.81;99498.69;5009263;28;10035;-65
2023/03/31 05:06:30;;;;;;;;;4.00;4.00;;;;;10.87;83.80;99491.66;4994502;28;10089;-66
2023/03/31 05:08:56;;;;;;;;;2.75;1.50;;;;;10.84;83.31;99490.25;4981437;28;10204;-65
2023/03/31 05:11:22;;;;;;;;;5.25;3.25;;;;;10.80;83.15;99485.53;4976479;28;10163;-63
2023/03/31 05:13:49;;;;;;;;;6.00;3.00;;;;;10.71;83.91;99479.66;4992718;28;10055;-66
2023/03/31 05:16:16;;;;;;;;;3.50;2.75;;;;;10.72;84.27;99467.03;4975288;28;10072;-69
2023/03/31 05:18:42;;;;;;;;;2.50;2.50;;;;;10.74;84.35;99462.25;5012148;28;10025;-66
2023/03/31 05:21:14;;;;;;;;;3.75;3.75;;;;;10.72;84.15;99461.66;5009676;28;10110;-64
2023/03/31 05:23:42;;;;;;;;;4.75;3.00;;;;;10.66;84.67;99458.00;5008646;28;10965;-66
2023/03/31 05:26:08;;;;;;;;;4.00;4.00;;;;;10.66;84.65;99455.31;4993765;28;10034;-66
2023/03/31 05:28:35;;;;;;;;;2.50;2.00;;;;;10.72;84.36;99451.69;4984813;28;10028;-67
2023/03/31 05:31:03;;;;;;;;;5.50;4.50;;;;;10.72;84.52;99450.88;5008913;28;10009;-66
2023/03/31 05:33:30;;;;;;;;;2.50;2.50;;;;;10.77;84.48;99451.81;4990102;28;10091;-66
2023/03/31 05:35:58;;;;;;;;;3.50;3.50;;;;;10.78;84.38;99441.91;5011192;28;10668;-68
2023/03/31 05:38:30;;;;;;;;;2.00;2.00;;;;;10.74;83.87;99438.84;5010890;28;10080;-66
2023/03/31 05:40:57;;;;;;;;;3.25;2.00;;;;;10.76;84.56;99438.59;5003220;28;10119;-67
2023/03/31 05:43:23;;;;;;;;;2.00;2.00;;;;;10.73;84.21;99428.28;5010707;28;10020;-66
2023/03/31 05:45:50;;;;;;;;;4.00;1.00;;;;;10.71;84.54;99433.91;5010094;28;10183;-65
2023/03/31 05:48:16;;;;;;;;;2.25;2.00;;;;;10.77;84.74;99426.78;4993768;28;10078;-66
2023/03/31 05:50:43;;;;;;;;;2.50;1.00;;;;;10.86;84.88;99430.81;4992179;28;10031;-66
2023/03/31 05:53:10;;;;;;;;;2.50;2.00;;;;;10.85;84.32;99426.44;5000803;28;11127;-67
2023/03/31 05:55:36;;;;;;;;;1.75;1.75;;;;;10.86;84.42;99420.84;5002063;28;10120;-66
2023/03/31 05:58:03;;;;;;;;;3.00;3.00;;;;;10.83;84.06;99424.00;5009294;28;9924;-66
2023/03/31 06:00:30;;;;;;;;;2.25;1.75;;;;;10.81;84.24;99414.50;5005098;28;10113;-65
2023/03/31 06:02:58;;;;;;;;;1.75;1.25;;;;;10.78;84.25;99415.81;5011144;28;10021;-66
2023/03/31 06:05:29;;;;;;;;;2.75;2.75;;;;;10.78;84.30;99413.13;5010290;28;10039;-67
2023/03/31 06:07:56;;;;;;;;;2.50;2.25;;;;;10.77;84.40;99400.69;5009298;28;10100;-66
2023/03/31 06:10:23;;;;;;;;;0.75;0.75;;;;;10.77;84.47;99405.25;4993356;28;10055;-67
2023/03/31 06:12:49;;;;;;;;;0.50;0.50;;;;;10.78;84.06;99410.41;4993408;28;10054;-68
2023/03/31 06:15:16;;;;;;;;;2.00;2.00;;;;;10.73;84.19;99398.69;5008555;28;9858;-67
2023/03/31 06:17:42;;;;;;;;;1.75;1.75;;;;;10.76;84.33;99399.06;5010170;28;10935;-66
2023/03/31 06:20:09;;;;;;;;;1.00;1.00;;;;;10.77;84.69;99400.69;5010362;28;10114;-67
2023/03/31 06:22:53;;;;;;;;;2.00;1.00;;;;;10.77;84.38;99399.88;4992245;28;10024;-67
2023/03/31 06:25:20;;;;;;;;;1.75;1.00;;;;;10.70;84.41;99402.69;5010785;28;10115;-67
2023/03/31 06:27:46;;;;;;;;;1.75;1.75;;;;;10.70;85.10;99396.47;5010665;28;10043;-68
2023/03/31 06:30:13;;;;;;;;;0.75;0.00;;;;;10.72;84.95;99400.56;5003641;28;10169;-67
2023/03/31 06:32:39;;;;;;;;;2.00;1.00;;;;;10.77;85.03;99399.88;4988691;28;10003;-67
2023/03/31 06:35:06;;;;;;;;;0.00;0.00;;;;;10.75;84.61;99392.03;5010059;28;10012;-67
2023/03/31 06:37:33;;;;;;;;;2.50;1.00;;;;;10.81;84.89;99391.09;5010594;28;10012;-67
2023/03/31 06:39:59;;;;;;;;;1.25;1.00;;;;;10.88;84.70;99385.63;4998204;28;10048;-67
2023/03/31 06:42:26;;;;;;;;;1.00;1.00;;;;;10.89;84.36;99387.25;4992531;28;10031;-67
2023/03/31 06:44:54;;;;;;;;;1.75;1.75;;;;;10.86;84.44;99383.16;4997452;28;10138;-67
2023/03/31 06:47:21;;;;;;;;;1.00;1.00;;;;;10.92;84.22;99383.28;4993082;28;9930;-68
2023/03/31 06:49:49;;;;;;;;;1.00;1.00;;;;;11.00;84.61;99377.56;4986932;28;10098;-66
2023/03/31 06:52:16;;;;;;;;;3.00;2.00;;;;;11.03;84.08;99379.78;4971955;28;10118;-67
2023/03/31 06:54:43;;;;;;;;;2.50;2.00;;;;;11.00;84.08;99382.94;5009517;28;10018;-67
2023/03/31 06:57:09;;;;;;;;;3.00;2.00;;;;;10.96;83.61;99369.13;5010228;28;10248;-67
2023/03/31 06:59:35;;;;;;;;;0.50;0.50;;;;;10.97;84.21;99367.25;5001061;28;9957;-66
2023/03/31 07:02:02;;;;;;;;;0.75;0.75;;;;;10.99;83.70;99371.34;4998005;28;10007;-67
2023/03/31 07:04:29;;;;;;;;;2.00;2.00;;;;;10.95;83.63;99364.78;5006156;28;9817;-68
2023/03/31 07:06:58;;;;;;;;;1.00;1.00;;;;;10.94;83.52;99362.31;4984624;28;9968;-67
2023/03/31 07:09:25;;;;;;;;;2.50;1.00;;;;;10.88;84.17;99361.38;5008973;28;9928;-67
2023/03/31 07:11:51;;;;;;;;;1.75;1.75;;;;;10.86;84.08;99350.88;4973884;28;10625;-70
2023/03/31 07:14:22;;;;;;;;;1.00;1.00;;;;;10.90;84.21;99359.31;4982996;28;10088;-65
2023/03/31 07:16:49;;;;;;;;;1.25;1.00;;;;;10.85;84.30;99353.78;4992531;28;10177;-67
2023/03/31 07:19:16;;;;;;;;;0.75;0.75;;;;;10.89;84.59;99360.31;4976043;28;10276;-66
2023/03/31 07:21:43;;;;;;;;;1.00;1.00;;;;;10.90;84.52;99351.22;5006039;28;10053;-68
2023/03/31 07:24:09;;;;;;;;;2.00;1.00;;;;;10.91;84.27;99352.03;4990271;28;10041;-68
2023/03/31 07:26:35;;;;;;;;;1.00;1.00;;;;;10.92;83.77;99345.59;4991408;28;10866;-67
2023/03/31 07:29:02;;;;;;;;;1.00;1.00;;;;;10.85;83.83;99349.19;5004057;28;9966;-66
2023/03/31 07:31:29;;;;;;;;;1.00;1.00;;;;;10.80;84.27;99350.97;5007237;28;9837;-67
2023/03/31 07:33:56;;;;;;;;;1.00;1.00;;;;;10.81;84.92;99347.22;5010437;28;9930;-67
2023/03/31 07:36:23;;;;;;;;;1.00;1.00;;;;;10.83;84.93;99335.16;5001946;28;9963;-67
2023/03/31 07:38:49;;;;;;;;;0.00;0.00;;;;;10.89;84.95;99336.09;5008042;28;9959;-66
2023/03/31 07:41:19;;;;;;;;;0.75;0.75;;;;;10.91;84.91;99334.00;5010235;28;9931;-66
2023/03/31 07:43:45;;;;;;;;;1.50;1.50;;;;;10.88;84.78;99342.53;5010136;28;10660;-66
2023/03/31 07:46:14;;;;;;;;;0.75;0.25;;;;;10.86;85.11;99337.41;5009706;28;10080;-67
2023/03/31 07:48:40;;;;;;;;;0.75;0.75;;;;;10.88;84.92;99331.78;5008458;28;10081;-67
2023/03/31 07:51:07;;;;;;;;;1.75;1.75;;;;;10.89;84.75;99328.03;5008724;28;10006;-67
2023/03/31 07:53:35;;;;;;;;;5.50;2.00;;;;;10.92;85.09;99326.75;4975724;28;10121;-67
2023/03/31 07:56:01;;;;;;;;;1.50;1.50;;;;;10.98;85.16;99323.09;5008491;28;10713;-67
2023/03/31 07:58:28;;;;;;;;;0.50;0.50;;;;;11.00;84.61;99321.81;5009769;28;9904;-67
2023/03/31 08:00:54;;;;;;;;;1.00;1.00;;;;;11.03;85.11;99323.25;5008856;28;9725;-67
2023/03/31 08:03:21;;;;;;;;;1.50;1.25;;;;;11.05;85.04;99316.56;4983222;28;9772;-68
2023/03/31 08:05:51;;;;;;;;;0.75;0.75;;;;;11.06;84.71;99315.53;5007506;28;10135;-67
2023/03/31 08:08:18;;;;;;;;;1.25;1.25;;;;;11.07;84.62;99310.94;4990655;28;10017;-66
2023/03/31 08:10:44;;;;;;;;;1.00;1.00;;;;;11.09;84.81;99314.22;4990664;28;10653;-67
2023/03/31 08:13:11;;;;;;;;;1.00;1.00;;;;;11.10;85.03;99308.63;5008462;28;9951;-68
2023/03/31 08:15:37;;;;;;;;;1.00;1.00;;;;;11.21;85.09;99314.22;5009041;28;9703;-68
2023/03/31 08:18:04;;;;;;;;;1.00;1.00;;;;;11.26;84.65;99301.69;5009222;28;9680;-68
2023/03/31 08:20:31;;;;;;;;;0.75;0.75;;;;;11.34;84.73;99295.94;5009040;28;9755;-68
2023/03/31 08:22:58;;;;;;;;;5.00;3.00;;;;;11.38;84.69;99293.56;5006348;28;9753;-65
2023/03/31 08:25:24;;;;;;;;;2.75;2.00;;;;;11.39;84.42;99292.53;5011853;28;10007;-66
2023/03/31 08:27:51;;;;;;;;;2.50;2.50;;;;;11.44;84.36;99291.81;5006329;28;9881;-66
2023/03/31 08:30:19;;;;;;;;;2.25;2.00;;;;;11.46;84.17;99289.69;5013012;28;9927;-67
2023/03/31 08:32:45;;;;;;;;;4.00;3.25;;;;;11.49;84.26;99279.25;4995172;28;9943;-67
2023/03/31 08:35:12;;;;;;;;;3.00;3.00;;;;;11.54;84.13;99282.03;4994984;28;9949;-65
2023/03/31 08:37:39;;;;;;;;;2.75;2.50;;;;;11.55;84.30;99283.69;5008736;28;10005;-66
2023/03/31 08:40:08;;;;;;;;;5.75;3.00;;;;;11.57;84.11;99270.78;5011321;28;10021;-67
2023/03/31 08:42:42;;;;;;;;;1.75;1.75;;;;;11.62;83.81;99278.97;5008965;28;10032;-66
2023/03/31 08:45:17;;;;;;;;;3.00;2.00;;;;;11.64;83.94;99276.06;5011221;28;9986;-65
2023/03/31 08:47:50;;;;;;;;;3.25;3.25;;;;;11.71;84.12;99268.66;5006840;28;10549;-68
2023/03/31 08:50:25;;;;;;;;;3.50;3.50;;;;;11.74;83.78;99276.25;5010214;28;9764;-66
2023/03/31 08:53:05;;;;;;;;;1.25;1.25;;;;;11.81;84.05;99268.84;5010191;28;9990;-68
2023/03/31 08:55:42;;;;;;;;;2.50;2.50;;;;;11.84;83.76;99259.50;4992602;28;9700;-68
2023/03/31 08:58:26;;;;;;;;;1.00;1.00;;;;;11.91;83.60;99262.88;5007898;28;9704;-65
2023/03/31 09:01:18;;;;;;;;;7.00;4.50;;;;;11.94;83.47;99258.84;5011163;28;9691;-67
2023/03/31 09:04:26;;;;;;;;;3.00;2.00;;;;;11.99;83.58;99256.22;5010072;28;9780;-69
2023/03/31 09:06:55;;;;;;;;;6.50;4.75;;;;;11.96;83.22;99254.03;4986653;28;9789;-67
2023/03/31 09:09:31;;;;;;;;;2.00;2.00;;;;;11.94;83.46;99264.25;4993105;28;9892;-67
2023/03/31 09:12:06;;;;;;;;;2.50;2.50;;;;;11.88;82.78;99253.38;4993965;28;9731;-66
2023/03/31 09:14:36;;;;;;;;;4.00;3.00;;;;;11.85;82.96;99251.16;5011436;28;9785;-66
2023/03/31 09:17:15;;;;;;;;;3.75;3.75;;;;;11.81;82.84;99241.06;5010918;28;9766;-67
2023/03/31 09:19:48;;;;;;;;;3.75;2.50;;;;;11.77;83.01;99243.41;5002180;28;9929;-65
2023/03/31 09:22:21;;;;;;;;;1.25;1.00;;;;;11.77;83.60;99239.91;4995915;28;9908;-66
2023/03/31 09:25:00;;;;;;;;;3.50;3.00;;;;;11.76;83.25;99227.50;5002679;28;9881;-66
2023/03/31 09:27:30;;;;;;;;;3.00;3.00;;;;;11.74;83.57;99235.00;5009036;28;9759;-65
2023/03/31 09:30:03;;;;;;;;;2.00;2.00;;;;;11.72;83.86;99227.16;4990834;28;9676;-66
2023/03/31 09:32:32;;;;;;;;;4.00;2.25;;;;;11.70;83.34;99221.16;5008907;28;9960;-65
2023/03/31 09:35:15;;;;;;;;;5.00;2.25;;;;;11.70;83.92;99220.34;4992260;28;9767;-67
2023/03/31 09:37:42;;;;;;;;;3.00;3.00;;;;;11.65;83.63;99213.00;4991973;28;9893;-66
2023/03/31 09:40:16;;;;;;;;;2.50;2.50;;;;;11.62;83.93;99203.50;5011177;28;10044;-66
2023/03/31 09:42:43;;;;;;;;;5.00;2.50;;;;;11.61;84.25;99214.53;4991745;28;10035;-66
2023/03/31 09:45:18;;;;;;;;;6.00;5.00;;;;;11.60;83.88;99211.03;5002984;28;9832;-64
2023/03/31 09:47:50;;;;;;;;;4.75;2.00;;;;;11.63;84.46;99215.13;5009539;28;9868;-66
2023/03/31 09:50:17;;;;;;;;;5.25;2.50;;;;;11.71;84.18;99205.81;5011099;28;9901;-67
2023/03/31 09:52:53;;;;;;;;;3.00;3.00;;;;;11.73;84.21;99207.22;5010384;28;9693;-67
2023/03/31 09:55:28;;;;;;;;;5.50;4.00;;;;;11.85;83.88;99199.91;5010713;28;9859;-67
2023/03/31 09:58:10;;;;;;;;;5.00;3.50;;;;;11.88;83.71;99209.41;4989986;28;9799;-67
2023/03/31 10:00:41;;;;;;;;;3.75;2.00;;;;;11.83;83.12;99202.06;5008250;28;9975;-66
2023/03/31 10:03:12;;;;;;;;;2.00;2.00;;;;;11.80;82.98;99201.69;5020691;28;9838;-66
2023/03/31 10:05:51;;;;;;;;;4.00;2.00;;;;;11.68;82.70;99200.94;5031680;23;9960;-69
2023/03/31 10:08:19;;;;;;;;;2.50;2.00;;;;;11.63;83.02;99198.97;5002402;28;9681;-64
2023/03/31 10:10:53;;;;;;;;;4.50;3.00;;;;;11.64;83.04;99203.28;5010810;28;9801;-68
2023/03/31 10:13:28;;;;;;;;;5.00;3.00;;;;;11.65;83.03;99202.22;5011227;28;9952;-69
2023/03/31 10:16:02;;;;;;;;;2.25;2.00;;;;;11.77;82.74;99194.06;5009969;28;10445;-69
2023/03/31 10:18:38;;;;;;;;;2.75;2.75;;;;;11.83;82.60;99187.75;5011146;28;9893;-69
2023/03/31 10:21:14;;;;;;;;;3.75;3.75;;;;;11.80;82.50;99189.03;5008872;28;9916;-69
2023/03/31 10:23:46;;;;;;;;;8.00;4.75;;;;;11.76;82.25;99187.06;5010330;28;9857;-69
2023/03/31 10:26:17;;;;;;;;;3.00;3.00;;;;;11.70;82.52;99193.41;5007068;28;10604;-69
2023/03/31 10:28:44;;;;;;;;;5.25;2.75;;;;;11.64;82.70;99171.75;5010225;28;9878;-68
2023/03/31 10:31:11;;;;;;;;;3.25;2.00;;;;;11.71;82.51;99171.63;5008065;28;10550;-65
2023/03/31 10:33:43;;;;;;;;;5.25;2.00;;;;;11.69;82.49;99173.72;5009107;28;9861;-68
2023/03/31 10:36:22;;;;;;;;;4.75;2.75;;;;;11.61;82.26;99164.16;5004933;28;10054;-69
2023/03/31 10:38:51;;;;;;;;;5.00;3.50;;;;;11.55;82.50;99167.81;5006646;28;9769;-68
2023/03/31 10:41:20;;;;;;;;;3.00;3.00;;;;;11.59;82.28;99168.97;5001000;28;9866;-69
2023/03/31 10:43:48;;;;;;;;;4.50;1.25;;;;;11.70;82.14;99164.56;5004631;28;9959;-69
2023/03/31 10:46:15;;;;;;;;;5.75;2.00;;;;;11.78;81.56;99161.47;5007525;28;9884;-69
2023/03/31 10:48:43;;;;;;;;;1.75;1.75;;;;;11.78;81.44;99164.16;5011016;28;9780;-69
2023/03/31 10:51:26;;;;;;;;;1.00;1.00;;;;;11.79;81.66;99157.75;5010440;28;9868;-69
2023/03/31 10:53:54;;;;;;;;;3.25;1.50;;;;;11.76;81.04;99170.88;5010788;28;9774;-69
2023/03/31 10:56:42;;;;;;;;;2.00;1.50;;;;;11.70;81.21;99166.44;5010432;28;9935;-69
2023/03/31 10:59:28;;;;;;;;;1.75;1.75;;;;;11.72;80.97;99162.47;5010868;28;10506;-69
2023/03/31 11:02:03;;;;;;;;;2.00;2.00;;;;;11.72;80.87;99161.66;5010524;28;9760;-69
2023/03/31 11:05:02;;;;;;;;;6.00;2.00;;;;;11.72;81.20;99158.94;5010151;28;9885;-67
2023/03/31 11:07:52;;;;;;;;;1.00;1.00;;;;;11.77;81.30;99165.25;4992654;28;9797;-69
2023/03/31 11:10:33;;;;;;;;;5.50;3.00;;;;;11.73;81.20;99165.97;5008620;28;9969;-69
2023/03/31 11:13:16;;;;;;;;;4.00;2.25;;;;;11.53;80.82;99171.81;4973641;28;10707;-69
2023/03/31 11:15:54;;;;;;;;;1.00;0.25;;;;;11.46;81.30;99173.81;4971678;28;10041;-70
2023/03/31 11:18:31;;;;;;;;;3.00;1.00;;;;;11.41;81.80;99168.34;4990841;28;9712;-68
2023/03/31 11:21:09;;;;;;;;;2.50;1.50;;;;;11.39;82.08;99176.69;5008762;28;9754;-68
2023/03/31 11:24:00;;;;;;;;;3.00;2.00;;;;;11.43;82.08;99182.41;5010515;28;9863;-69
2023/03/31 11:27:02;;;;;;;;;3.00;1.00;;;;;11.39;82.58;99177.50;5010063;28;10029;-67
2023/03/31 11:29:42;;;;;;;;;0.75;0.75;;;;;11.47;82.47;99162.00;5010369;28;9874;-67
2023/03/31 11:32:45;;;;;;;;;1.75;1.00;;;;;11.52;82.76;99162.91;4973883;28;9876;-70
2023/03/31 11:35:15;;;;;;;;;1.50;1.00;;;;;11.61;82.57;99155.25;5007050;28;9859;-69
2023/03/31 11:37:56;;;;;;;;;0.75;0.75;;;;;11.68;82.59;99152.41;5010405;28;9842;-69
2023/03/31 11:40:48;;;;;;;;;2.25;1.00;;;;;11.75;82.97;99148.50;5010200;28;9922;-70
2023/03/31 11:43:36;;;;;;;;;3.00;1.00;;;;;11.77;82.37;99149.06;5010342;28;9786;-70
2023/03/31 11:46:14;;;;;;;;;2.00;2.00;;;;;11.70;82.56;99145.69;4992355;28;9774;-69
2023/03/31 11:48:48;;;;;;;;;1.50;1.50;;;;;11.69;82.58;99146.75;4996274;28;9703;-69
2023/03/31 11:51:26;;;;;;;;;2.00;1.00;;;;;11.71;82.85;99133.03;5010093;28;10476;-70
2023/03/31 11:53:56;;;;;;;;;1.50;1.50;;;;;11.73;82.79;99144.41;5012589;28;9788;-69
2023/03/31 11:56:30;;;;;;;;;2.00;2.00;;;;;11.69;82.93;99144.06;5012374;28;9734;-70
2023/03/31 11:58:59;;;;;;;;;2.00;1.00;;;;;11.76;83.04;99127.75;4996293;28;9796;-69
2023/03/31 12:01:45;;;;;;;;;1.75;1.00;;;;;11.81;82.78;99125.94;5014009;28;9985;-70